Churdan, Iowa
Current Conditions -  °F | °C
As of 3:15 AM on Friday 31 Oct 2014 (Local Time) from KCIN Reporting Station
Few Clouds Few Clouds  
Wind Chill: 20°   Ceiling: Unl
Heat Index: 32°   Visibility: 10mi
Dew Point: 19°   Wind: 20mph
Humidity: 60%   Direction: 350°N
Pressure: 30.43"   Gusts: NA
Location:  42.15°N, 94.47°W
Report Text: KCIN 310815Z AUTO 35017KT 10SM FEW080 M00/M07 A3043 RMK AO2
Loading
Personal Weather Stations






























Interactive Weather Map
Tropical Storm Tracking
New forecast layout! Learn more

10-Day Weather Forecast

Advertisements
Track Severe Weather on mobile